Perry, New York
Current Conditions -  °F | °C
As of 7:54 PM on Tuesday 27 Jan 2015 (Local Time) from KDSV Reporting Station
Clear Clear  
Wind Chill:   Ceiling: Unl
Heat Index:   Visibility: 10mi
Dew Point:   Wind: 0mph
Humidity: 84%   Direction: NA
Pressure: 30.06"   Gusts: NA
Location:  42.72°N, 78.01°W
Report Text: KDSV 280054Z AUTO 00000KT 10SM CLR M15/M17 A3006 RMK AO2 SLP200 T11501172
Loading
Personal Weather Stations






























Interactive Weather Map New forecast layout! Learn more

10-Day Weather Forecast

Advertisements
Track Severe Weather on mobile